Time;durP1;ratioP1;P1;durP2;ratioP2;P2;SDS_P1;SDS_P2;PMS_P1;PMS_P2;Temp;Humidity;BMP_temperature;BMP_pressure;BME280_temperature;BME280_humidity;BME280_pressure;Samples;Min_cycle;Max_cycle;Signal;HPM_P1;HPM_P2
2021/08/09 00:02:33;;;;;;;2.90;1.77;;;18.30;93.20;;;;;;5010761;28;20030;-78
2021/08/09 00:05:18;;;;;;;3.15;2.10;;;18.30;93.10;;;;;;5011948;28;20096;-80
2021/08/09 00:08:05;;;;;;;3.58;2.08;;;18.30;93.10;;;;;;4993926;28;20510;-80
2021/08/09 00:10:50;;;;;;;3.42;2.10;;;18.20;93.00;;;;;;4995844;28;20034;-78
2021/08/09 00:13:36;;;;;;;4.60;1.95;;;18.20;93.00;;;;;;4997720;28;20029;-80
2021/08/09 00:16:22;;;;;;;3.58;1.80;;;18.10;93.00;;;;;;5005694;28;20037;-79
2021/08/09 00:19:08;;;;;;;3.13;2.40;;;18.10;93.10;;;;;;4994983;28;20065;-79
2021/08/09 00:21:34;;;;;;;3.92;1.92;;;18.00;93.00;;;;;;5000884;28;20061;-79
2021/08/09 00:24:18;;;;;;;3.75;2.00;;;18.00;93.00;;;;;;5013316;28;20103;-79
2021/08/09 00:27:02;;;;;;;2.55;1.70;;;18.00;93.00;;;;;;4991905;28;20041;-79
2021/08/09 00:29:46;;;;;;;4.23;2.00;;;17.90;93.10;;;;;;4993584;28;20169;-79
2021/08/09 00:32:30;;;;;;;2.43;1.80;;;17.90;93.10;;;;;;5007183;28;20057;-79
2021/08/09 00:35:14;;;;;;;2.60;1.80;;;17.90;93.10;;;;;;5013207;28;20327;-79
2021/08/09 00:37:59;;;;;;;3.13;2.05;;;17.80;93.10;;;;;;5032760;28;20053;-80
2021/08/09 00:40:43;;;;;;;4.33;1.83;;;17.80;93.10;;;;;;5030953;28;20102;-79
2021/08/09 00:43:27;;;;;;;5.53;2.67;;;17.70;93.20;;;;;;5035272;28;20068;-79
2021/08/09 00:46:11;;;;;;;4.53;1.90;;;17.70;93.20;;;;;;5025878;28;20032;-78
2021/08/09 00:48:55;;;;;;;3.97;2.00;;;17.70;93.30;;;;;;5016698;28;20057;-79
2021/08/09 00:51:40;;;;;;;3.47;1.58;;;17.60;93.30;;;;;;5003096;28;20101;-78
2021/08/09 00:54:24;;;;;;;4.13;1.98;;;17.60;93.40;;;;;;4993582;28;20386;-76
2021/08/09 00:57:09;;;;;;;4.43;1.77;;;17.60;93.40;;;;;;5004301;28;20092;-76
2021/08/09 00:59:53;;;;;;;2.55;1.75;;;17.60;93.40;;;;;;5011611;28;20095;-74
2021/08/09 01:02:37;;;;;;;2.47;1.80;;;17.50;93.40;;;;;;5010706;28;20560;-74
2021/08/09 01:05:22;;;;;;;4.40;2.00;;;17.50;93.50;;;;;;5012536;28;20140;-81
2021/08/09 01:08:30;;;;;;;4.27;2.20;;;17.50;93.50;;;;;;5008686;28;20605;-81
2021/08/09 01:11:33;;;;;;;3.58;2.20;;;17.50;93.50;;;;;;5011603;28;20730;-80
2021/08/09 01:14:26;;;;;;;3.35;1.75;;;17.40;93.50;;;;;;4996887;28;20091;-81
2021/08/09 01:17:11;;;;;;;3.53;1.90;;;17.40;93.60;;;;;;5010949;28;20610;-74
2021/08/09 01:20:18;;;;;;;3.33;1.70;;;17.40;93.70;;;;;;5011167;28;20172;-74
2021/08/09 01:23:30;;;;;;;3.30;1.80;;;17.40;93.80;;;;;;5011729;28;20045;-76
2021/08/09 01:26:46;;;;;;;3.47;1.85;;;17.30;93.70;;;;;;5010309;28;20044;-75
2021/08/09 01:29:36;;;;;;;3.42;1.90;;;17.30;93.80;;;;;;5010686;28;20036;-77
2021/08/09 01:32:21;;;;;;;3.20;2.15;;;17.30;93.90;;;;;;5009006;28;20092;-78
2021/08/09 01:35:08;;;;;;;2.85;1.90;;;17.30;93.90;;;;;;5009647;28;20155;-79
2021/08/09 01:37:55;;;;;;;3.35;1.65;;;17.20;94.00;;;;;;5009222;28;20560;-75
2021/08/09 01:40:41;;;;;;;3.60;1.83;;;17.20;94.10;;;;;;4991692;28;20562;-75
2021/08/09 01:43:27;;;;;;;4.65;1.90;;;17.20;94.10;;;;;;4992881;28;20037;-79
2021/08/09 01:46:12;;;;;;;2.47;1.83;;;17.10;94.10;;;;;;5006005;28;20094;-80
2021/08/09 01:48:57;;;;;;;7.60;2.60;;;17.10;94.10;;;;;;5011635;28;20053;-79
2021/08/09 01:51:41;;;;;;;4.47;1.90;;;17.10;94.10;;;;;;5009815;28;20084;-78
2021/08/09 01:54:26;;;;;;;2.22;1.75;;;17.10;94.10;;;;;;5011555;28;20036;-80
2021/08/09 01:57:10;;;;;;;3.60;1.90;;;17.00;94.20;;;;;;4998144;28;20172;-79
2021/08/09 01:59:54;;;;;;;3.25;1.80;;;17.10;94.20;;;;;;4999419;28;20041;-79
2021/08/09 02:02:38;;;;;;;2.92;2.13;;;17.10;94.20;;;;;;5005180;28;20499;-79
2021/08/09 02:05:23;;;;;;;3.55;2.28;;;17.00;94.10;;;;;;5004341;28;20061;-78
2021/08/09 02:08:10;;;;;;;;;;;17.00;94.10;;;;;;5006040;28;20445;-78
2021/08/09 02:11:02;;;;;;;2.00;1.60;;;17.00;93.80;;;;;;5002106;28;19917;-79
2021/08/09 02:13:57;;;;;;;2.88;1.60;;;16.90;94.10;;;;;;4987172;28;20390;-78
2021/08/09 02:16:59;;;;;;;2.75;1.77;;;16.90;94.10;;;;;;5013955;28;20076;-78
2021/08/09 02:19:51;;;;;;;2.38;1.77;;;16.90;94.10;;;;;;5013940;28;20041;-80
2021/08/09 02:22:44;;;;;;;3.22;1.63;;;16.90;94.10;;;;;;5015334;28;20076;-80
2021/08/09 02:25:32;;;;;;;2.00;1.40;;;16.90;94.20;;;;;;5008222;28;20044;-79
2021/08/09 02:28:21;;;;;;;2.10;1.60;;;16.90;94.20;;;;;;4995446;28;20057;-79
2021/08/09 02:31:06;;;;;;;1.98;1.42;;;16.80;94.20;;;;;;5013513;28;20041;-78
2021/08/09 02:33:51;;;;;;;3.00;1.50;;;16.80;94.20;;;;;;5014156;28;20033;-79
2021/08/09 02:36:36;;;;;;;3.08;1.40;;;16.80;94.20;;;;;;5013858;28;20084;-78
2021/08/09 02:39:21;;;;;;;2.33;1.75;;;16.80;94.20;;;;;;5015280;28;20076;-78
2021/08/09 02:42:05;;;;;;;;;;;16.80;94.20;;;;;;4996259;28;20077;-77
2021/08/09 02:44:49;;;;;;;2.65;1.70;;;16.70;93.90;;;;;;4998714;28;20159;-78
2021/08/09 02:47:37;;;;;;;4.50;1.98;;;16.70;94.20;;;;;;5015116;28;20529;-77
2021/08/09 02:50:22;;;;;;;2.42;1.63;;;16.70;94.20;;;;;;5011925;28;20100;-77
2021/08/09 02:53:06;;;;;;;3.25;1.60;;;16.70;94.30;;;;;;5015062;28;20044;-77
2021/08/09 02:55:56;;;;;;;3.25;1.90;;;16.70;94.40;;;;;;5013313;28;20509;-77
2021/08/09 02:58:40;;;;;;;2.90;2.10;;;16.60;94.30;;;;;;5013520;28;20049;-77
2021/08/09 03:01:27;;;;;;;2.63;1.70;;;16.70;94.40;;;;;;5013016;28;20060;-77
2021/08/09 03:04:15;;;;;;;2.20;1.58;;;16.70;94.40;;;;;;5014833;28;20444;-77
2021/08/09 03:06:59;;;;;;;2.90;1.85;;;16.60;94.40;;;;;;5012579;28;20112;-77
2021/08/09 03:09:44;;;;;;;3.17;1.95;;;16.60;94.40;;;;;;5012425;28;20125;-77
2021/08/09 03:12:28;;;;;;;2.20;1.77;;;16.60;94.50;;;;;;5014234;28;20048;-77
2021/08/09 03:15:12;;;;;;;2.92;2.00;;;16.60;94.50;;;;;;5011707;28;20065;-76
2021/08/09 03:17:56;;;;;;;2.65;1.70;;;16.60;94.50;;;;;;5014024;28;20028;-76
2021/08/09 03:20:41;;;;;;;3.00;1.70;;;16.50;94.60;;;;;;5011862;28;20211;-76
2021/08/09 03:23:25;;;;;;;3.15;2.00;;;16.50;94.60;;;;;;5013068;28;20041;-75
2021/08/09 03:26:10;;;;;;;2.42;1.77;;;16.50;94.60;;;;;;5012710;28;20266;-77
2021/08/09 03:28:53;;;;;;;5.10;2.25;;;16.50;94.60;;;;;;5014025;28;20048;-77
2021/08/09 03:31:38;;;;;;;4.78;1.98;;;16.50;94.60;;;;;;5012067;28;20093;-77
2021/08/09 03:34:22;;;;;;;4.18;2.20;;;16.50;94.60;;;;;;5012870;28;20037;-78
2021/08/09 03:37:06;;;;;;;3.20;2.08;;;16.50;94.70;;;;;;5013195;28;20053;-78
2021/08/09 03:39:50;;;;;;;2.42;1.60;;;16.40;94.70;;;;;;5011660;28;20105;-78
2021/08/09 03:42:34;;;;;;;2.72;2.05;;;16.40;94.70;;;;;;5014486;28;20182;-78
2021/08/09 03:45:19;;;;;;;2.90;2.17;;;16.40;94.80;;;;;;5011890;28;20092;-77
2021/08/09 03:48:06;;;;;;;6.75;2.65;;;16.40;94.80;;;;;;5012869;28;20037;-77
2021/08/09 03:50:51;;;;;;;3.45;1.90;;;16.40;94.80;;;;;;5010981;28;20459;-77
2021/08/09 03:53:35;;;;;;;3.60;2.05;;;16.30;94.80;;;;;;5011699;28;20060;-76
2021/08/09 03:56:19;;;;;;;4.80;2.80;;;16.40;94.80;;;;;;5007299;28;20091;-74
2021/08/09 03:59:04;;;;;;;3.70;2.60;;;16.40;94.80;;;;;;5012560;28;20042;-74
2021/08/09 04:01:39;;;;;;;3.67;2.10;;;16.30;94.90;;;;;;5008635;28;20441;-74
2021/08/09 04:04:22;;;;;;;4.72;2.92;;;16.40;94.90;;;;;;5013670;28;20390;-75
2021/08/09 04:07:09;;;;;;;4.45;2.70;;;16.40;94.90;;;;;;5011050;28;20609;-74
2021/08/09 04:09:55;;;;;;;5.25;1.95;;;16.40;95.00;;;;;;5011133;28;20034;-74
2021/08/09 04:12:40;;;;;;;3.63;2.28;;;16.40;94.90;;;;;;5012691;28;20029;-76
2021/08/09 04:15:26;;;;;;;3.55;2.05;;;16.30;95.00;;;;;;5010976;28;20026;-76
2021/08/09 04:18:12;;;;;;;4.35;2.53;;;16.40;95.00;;;;;;5012655;28;20410;-77
2021/08/09 04:20:58;;;;;;;2.70;2.10;;;16.30;95.00;;;;;;5011287;28;20037;-76
2021/08/09 04:23:44;;;;;;;3.33;2.22;;;16.30;95.00;;;;;;5011365;28;20355;-77
2021/08/09 04:26:30;;;;;;;3.28;1.95;;;16.40;95.00;;;;;;5011053;28;20034;-76
2021/08/09 04:29:16;;;;;;;2.92;2.28;;;16.40;95.00;;;;;;5012313;28;20065;-77
2021/08/09 04:32:11;;;;;;;3.63;2.33;;;16.40;95.00;;;;;;5011182;28;20042;-76
2021/08/09 04:34:57;;;;;;;4.78;2.72;;;16.40;95.00;;;;;;5010981;28;20088;-77
2021/08/09 04:37:43;;;;;;;2.97;2.13;;;16.50;95.00;;;;;;5012492;28;20030;-77
2021/08/09 04:40:30;;;;;;;3.90;2.42;;;16.40;95.10;;;;;;5012415;28;20037;-77
2021/08/09 04:43:16;;;;;;;4.93;2.30;;;16.50;95.10;;;;;;5013464;28;20509;-78
2021/08/09 04:46:02;;;;;;;4.32;2.70;;;16.50;95.20;;;;;;5011140;28;20040;-78
2021/08/09 04:48:48;;;;;;;3.35;2.30;;;16.50;95.10;;;;;;5009593;28;20083;-78
2021/08/09 04:51:34;;;;;;;5.13;2.70;;;16.50;95.20;;;;;;5010651;28;20552;-75
2021/08/09 04:54:20;;;;;;;4.03;2.85;;;16.50;95.20;;;;;;5011440;28;20037;-78
2021/08/09 04:57:06;;;;;;;2.85;2.13;;;16.60;95.20;;;;;;4993424;28;20114;-76
2021/08/09 04:59:51;;;;;;;4.93;2.75;;;16.60;95.10;;;;;;4994106;28;20033;-77
2021/08/09 05:02:37;;;;;;;3.78;2.42;;;16.60;95.10;;;;;;5011751;28;20033;-77
2021/08/09 05:05:23;;;;;;;5.15;2.75;;;16.60;95.20;;;;;;4997872;28;20021;-74
2021/08/09 05:08:09;;;;;;;4.50;2.63;;;16.70;95.00;;;;;;5011270;28;20025;-74
2021/08/09 05:10:55;;;;;;;3.75;2.40;;;16.70;95.00;;;;;;5011031;28;20026;-74
2021/08/09 05:13:41;;;;;;;3.95;2.40;;;16.70;94.90;;;;;;5011720;28;20056;-75
2021/08/09 05:16:27;;;;;;;4.70;2.55;;;16.80;95.00;;;;;;5012019;28;20022;-74
2021/08/09 05:19:13;;;;;;;5.13;2.50;;;16.80;95.00;;;;;;5008579;28;20042;-73
2021/08/09 05:21:59;;;;;;;4.28;2.42;;;16.80;94.90;;;;;;5011061;28;20038;-73
2021/08/09 05:24:47;;;;;;;4.82;2.55;;;16.90;94.80;;;;;;5010595;28;20061;-74
2021/08/09 05:27:33;;;;;;;5.47;2.75;;;16.90;94.70;;;;;;5011057;28;20101;-73
2021/08/09 05:30:18;;;;;;;4.18;2.20;;;16.90;94.60;;;;;;5011316;28;20486;-74
2021/08/09 05:33:07;;;;;;;4.18;2.33;;;17.00;94.70;;;;;;5010668;28;20108;-80
2021/08/09 05:35:53;;;;;;;3.22;2.40;;;17.00;94.70;;;;;;5009959;28;20038;-82
2021/08/09 05:38:39;;;;;;;5.90;2.17;;;17.00;94.60;;;;;;5010594;28;20025;-83
2021/08/09 05:41:25;;;;;;;4.55;2.20;;;17.10;94.60;;;;;;5008625;28;20372;-81
2021/08/09 05:44:10;;;;;;;6.85;3.10;;;17.20;94.50;;;;;;5010929;28;20049;-75
2021/08/09 05:46:56;;;;;;;3.28;2.42;;;17.20;94.50;;;;;;5010988;28;20339;-74
2021/08/09 05:49:42;;;;;;;3.38;2.50;;;17.30;94.50;;;;;;5010005;28;20108;-73
2021/08/09 05:52:28;;;;;;;6.78;2.92;;;17.30;94.50;;;;;;5011686;28;20053;-73
2021/08/09 05:55:14;;;;;;;5.85;2.60;;;17.40;94.50;;;;;;5009642;28;20101;-74
2021/08/09 05:57:59;;;;;;;3.67;2.00;;;17.50;94.50;;;;;;5009456;28;20046;-74
2021/08/09 06:00:46;;;;;;;4.97;2.70;;;17.60;94.40;;;;;;5000368;28;20434;-74
2021/08/09 06:03:30;;;;;;;4.75;2.40;;;17.70;94.30;;;;;;4991689;28;20081;-81
2021/08/09 06:06:18;;;;;;;6.43;2.63;;;17.70;94.20;;;;;;5004511;28;20040;-78
2021/08/09 06:09:02;;;;;;;4.90;2.60;;;17.80;94.10;;;;;;4992111;28;20264;-76
2021/08/09 06:11:46;;;;;;;11.02;3.30;;;18.00;94.10;;;;;;5008345;28;20124;-77
2021/08/09 06:14:31;;;;;;;5.40;2.33;;;18.10;94.30;;;;;;5008678;28;20079;-75
2021/08/09 06:17:14;;;;;;;7.10;3.07;;;18.20;94.40;;;;;;4990736;28;20580;-78
2021/08/09 06:19:59;;;;;;;3.73;1.87;;;18.30;94.20;;;;;;4994311;28;20037;-76
2021/08/09 06:22:43;;;;;;;7.20;2.20;;;18.40;94.00;;;;;;5006990;28;20037;-78
2021/08/09 06:25:27;;;;;;;3.95;2.05;;;18.50;93.70;;;;;;5006972;28;20041;-74
2021/08/09 06:28:11;;;;;;;3.03;2.20;;;18.50;93.80;;;;;;5004663;28;20040;-75
2021/08/09 06:30:55;;;;;;;3.55;1.90;;;18.60;93.50;;;;;;5001327;28;20041;-74
2021/08/09 06:33:39;;;;;;;4.30;2.07;;;18.60;93.60;;;;;;5007766;28;20091;-75
2021/08/09 06:36:23;;;;;;;4.50;2.10;;;18.70;93.50;;;;;;5005493;28;20641;-75
2021/08/09 06:39:07;;;;;;;5.43;2.65;;;18.80;93.40;;;;;;5009071;28;20032;-75
2021/08/09 06:41:52;;;;;;;4.55;2.13;;;18.90;93.20;;;;;;5006343;28;20088;-74
2021/08/09 06:44:36;;;;;;;2.97;2.15;;;19.00;93.10;;;;;;5006808;28;20084;-74
2021/08/09 06:47:20;;;;;;;4.78;2.78;;;19.10;92.80;;;;;;5012355;28;20168;-74
2021/08/09 06:50:05;;;;;;;4.15;2.28;;;19.20;93.00;;;;;;5007059;28;20062;-76
2021/08/09 06:52:50;;;;;;;;;;;19.30;92.90;;;;;;5008035;28;20469;-75
2021/08/09 06:55:34;;;;;;;4.90;1.88;;;19.40;93.10;;;;;;5005682;28;20009;-75
2021/08/09 06:58:18;;;;;;;5.70;2.30;;;19.50;92.90;;;;;;5011747;28;20044;-75
2021/08/09 07:01:02;;;;;;;3.03;1.63;;;19.60;92.60;;;;;;5004827;28;20112;-75
2021/08/09 07:03:48;;;;;;;2.65;1.80;;;19.70;92.30;;;;;;5010563;28;20461;-75
2021/08/09 07:06:32;;;;;;;2.55;1.52;;;19.90;92.10;;;;;;5010929;28;20041;-75
2021/08/09 07:09:16;;;;;;;4.63;1.93;;;19.90;92.10;;;;;;4993414;28;20092;-75
2021/08/09 07:12:00;;;;;;;3.40;2.03;;;20.00;91.80;;;;;;5005175;28;20123;-75
2021/08/09 07:14:44;;;;;;;6.23;2.60;;;20.10;91.70;;;;;;5010743;28;20052;-74
2021/08/09 07:17:28;;;;;;;3.17;2.00;;;20.20;91.60;;;;;;5006557;28;20374;-75
2021/08/09 07:20:14;;;;;;;4.15;2.38;;;20.20;91.50;;;;;;5005517;28;20029;-74
2021/08/09 07:22:42;;;;;;;4.18;2.22;;;20.30;91.20;;;;;;5004017;28;20103;-75
2021/08/09 07:25:09;;;;;;;4.00;2.38;;;20.30;91.20;;;;;;4994637;28;20026;-76
2021/08/09 07:27:35;;;;;;;3.28;1.70;;;20.40;91.10;;;;;;5010634;28;20040;-74
2021/08/09 07:30:05;;;;;;;3.67;1.80;;;20.40;91.10;;;;;;5010118;28;20035;-75
2021/08/09 07:32:30;;;;;;;3.92;2.00;;;20.50;90.90;;;;;;5012336;28;20522;-75
2021/08/09 07:34:56;;;;;;;5.45;2.20;;;20.60;90.80;;;;;;5013198;28;20035;-75
2021/08/09 07:37:21;;;;;;;3.45;1.95;;;20.60;90.80;;;;;;5011112;28;20037;-74
2021/08/09 07:39:47;;;;;;;4.75;2.05;;;20.70;90.50;;;;;;5010646;28;20026;-74
2021/08/09 07:42:12;;;;;;;2.47;1.90;;;20.80;90.70;;;;;;4997891;28;20033;-73
2021/08/09 07:44:38;;;;;;;4.40;2.40;;;20.80;90.10;;;;;;5013832;28;20108;-73
2021/08/09 07:47:03;;;;;;;5.55;2.97;;;20.90;89.90;;;;;;5006007;28;20030;-72
2021/08/09 07:49:29;;;;;;;4.22;2.65;;;21.00;89.80;;;;;;5012787;28;20046;-72
2021/08/09 07:51:54;;;;;;;6.65;3.25;;;21.10;89.30;;;;;;4986199;28;20038;-72
2021/08/09 07:54:20;;;;;;;5.53;2.47;;;21.10;89.10;;;;;;5009831;28;20080;-72
2021/08/09 07:56:49;;;;;;;3.47;2.33;;;21.20;89.20;;;;;;5009922;28;20092;-72
2021/08/09 07:59:14;;;;;;;4.35;2.33;;;21.30;89.40;;;;;;5001671;28;20038;-72
2021/08/09 08:02:01;;;;;;;2.83;2.10;;;21.30;88.70;;;;;;5007406;28;20553;-73
2021/08/09 08:04:27;;;;;;;3.03;1.90;;;21.30;88.70;;;;;;5004182;28;20093;-72
2021/08/09 08:06:52;;;;;;;4.10;2.17;;;21.40;88.40;;;;;;5010339;28;20021;-75
2021/08/09 08:09:18;;;;;;;3.17;2.13;;;21.40;88.20;;;;;;4994817;28;20102;-79
2021/08/09 08:11:43;;;;;;;3.70;1.95;;;21.50;88.20;;;;;;5006936;28;20410;-75
2021/08/09 08:14:28;;;;;;;3.85;1.95;;;21.50;87.90;;;;;;5011766;28;20041;-77
2021/08/09 08:17:12;;;;;;;4.63;2.50;;;21.50;87.90;;;;;;5009371;28;20083;-73
2021/08/09 08:19:56;;;;;;;6.70;2.30;;;21.50;87.80;;;;;;5002840;28;20041;-71
2021/08/09 08:22:40;;;;;;;5.28;2.47;;;21.50;87.80;;;;;;5003796;28;20308;-71
2021/08/09 08:25:25;;;;;;;4.25;2.53;;;21.60;87.60;;;;;;4999860;28;20097;-72
2021/08/09 08:28:09;;;;;;;4.28;2.03;;;21.60;87.20;;;;;;4994970;28;20126;-73
2021/08/09 08:30:53;;;;;;;5.07;2.60;;;21.60;87.60;;;;;;5002935;28;20037;-71
2021/08/09 08:33:37;;;;;;;4.00;2.10;;;21.70;87.40;;;;;;5012114;28;20076;-72
2021/08/09 08:36:03;;;;;;;3.20;2.20;;;21.70;87.20;;;;;;5005427;28;20037;-79
2021/08/09 08:38:28;;;;;;;3.45;1.98;;;21.70;87.10;;;;;;4998172;28;20061;-72
2021/08/09 08:41:16;;;;;;;3.05;1.88;;;21.70;86.60;;;;;;4999745;28;20095;-74
2021/08/09 08:43:59;;;;;;;5.57;2.15;;;21.80;87.20;;;;;;4999478;28;20036;-72
2021/08/09 08:46:44;;;;;;;4.83;2.10;;;21.80;86.50;;;;;;5012377;28;20037;-72
2021/08/09 08:49:29;;;;;;;3.88;1.88;;;21.90;86.50;;;;;;5015803;28;20279;-73
2021/08/09 08:52:15;;;;;;;3.78;1.85;;;21.90;86.70;;;;;;5012581;28;20037;-73
2021/08/09 08:54:59;;;;;;;3.90;2.15;;;22.00;86.40;;;;;;5007853;28;20052;-73
2021/08/09 08:57:24;;;;;;;4.88;2.25;;;22.00;86.10;;;;;;5014397;28;20462;-73
2021/08/09 08:59:53;;;;;;;3.78;2.10;;;22.10;86.40;;;;;;5014461;28;20022;-72
2021/08/09 09:02:36;;;;;;;4.70;1.98;;;22.10;86.10;;;;;;5010355;28;20033;-72
2021/08/09 09:05:10;;;;;;;3.60;2.10;;;22.10;86.00;;;;;;4992988;28;20018;-73
2021/08/09 09:07:38;;;;;;;6.68;2.20;;;22.20;86.40;;;;;;5012486;28;20108;-73
2021/08/09 09:10:15;;;;;;;6.22;2.63;;;22.30;86.00;;;;;;4994266;28;20036;-72
2021/08/09 09:12:41;;;;;;;3.25;2.03;;;22.30;85.80;;;;;;5011515;28;20638;-73
2021/08/09 09:15:07;;;;;;;3.42;2.00;;;22.30;85.40;;;;;;5008007;28;20076;-72
2021/08/09 09:17:35;;;;;;;4.18;2.03;;;22.40;85.50;;;;;;5010379;28;20026;-73
2021/08/09 09:20:22;;;;;;;4.38;2.38;;;22.40;85.60;;;;;;4993312;28;20372;-72
2021/08/09 09:22:48;;;;;;;2.97;1.65;;;22.50;85.40;;;;;;5007828;28;20116;-73
2021/08/09 09:25:13;;;;;;;3.65;2.20;;;22.60;85.20;;;;;;5009990;28;20100;-72
2021/08/09 09:27:38;;;;;;;3.15;1.85;;;22.70;84.90;;;;;;4993617;28;20126;-72
2021/08/09 09:30:26;;;;;;;4.05;2.00;;;22.70;85.40;;;;;;5009542;28;20022;-72
2021/08/09 09:33:02;;;;;;;3.45;2.10;;;22.80;85.30;;;;;;5006004;28;20568;-72
2021/08/09 09:35:28;;;;;;;5.63;2.17;;;22.80;84.60;;;;;;5009435;28;20116;-72
2021/08/09 09:37:55;;;;;;;4.45;2.28;;;22.80;83.70;;;;;;5012066;28;20053;-72
2021/08/09 09:40:20;;;;;;;5.30;2.22;;;22.90;83.50;;;;;;5011454;28;20083;-71
2021/08/09 09:42:47;;;;;;;4.68;1.80;;;22.90;83.90;;;;;;5011430;28;20025;-72
2021/08/09 09:45:22;;;;;;;4.47;2.42;;;23.00;84.00;;;;;;5019597;28;20037;-72
2021/08/09 09:47:59;;;;;;;4.55;2.17;;;23.10;83.80;;;;;;5008146;28;20022;-72
2021/08/09 09:50:25;;;;;;;3.45;2.00;;;23.20;83.60;;;;;;4995555;28;20050;-72
2021/08/09 09:52:52;;;;;;;3.15;1.75;;;23.30;82.90;;;;;;5000832;28;20057;-72
2021/08/09 09:55:18;;;;;;;5.00;2.20;;;23.30;82.60;;;;;;5012209;28;20026;-72
2021/08/09 09:57:46;;;;;;;6.85;2.15;;;23.40;82.30;;;;;;5010323;28;20018;-72
2021/08/09 10:00:13;;;;;;;3.88;2.00;;;23.50;81.00;;;;;;5011659;28;20453;-72
2021/08/09 10:02:40;;;;;;;4.03;2.20;;;23.50;81.50;;;;;;5021464;28;20018;-72
2021/08/09 10:05:06;;;;;;;3.30;1.90;;;23.50;81.70;;;;;;5007678;28;20042;-72
2021/08/09 10:07:34;;;;;;;2.67;1.90;;;23.60;81.70;;;;;;5009011;28;20053;-73
2021/08/09 10:10:01;;;;;;;3.03;1.92;;;23.60;80.90;;;;;;5010969;28;20040;-72
2021/08/09 10:12:30;;;;;;;4.45;2.13;;;23.70;80.80;;;;;;5009165;28;20034;-72
2021/08/09 10:14:56;;;;;;;6.13;2.10;;;23.70;80.50;;;;;;4988525;28;20360;-71
2021/08/09 10:17:23;;;;;;;4.65;2.17;;;23.80;79.70;;;;;;5011554;28;20367;-71
2021/08/09 10:20:01;;;;;;;3.65;2.17;;;23.90;79.10;;;;;;5009597;28;20029;-72
2021/08/09 10:22:28;;;;;;;5.07;2.60;;;24.00;79.30;;;;;;4993167;28;20041;-72
2021/08/09 10:24:55;;;;;;;4.13;2.47;;;24.00;78.00;;;;;;5010220;28;20033;-71
2021/08/09 10:27:45;;;;;;;3.53;1.90;;;24.10;78.00;;;;;;5006529;28;20100;-72
2021/08/09 10:30:13;;;;;;;4.90;1.90;;;24.10;77.90;;;;;;5011379;28;20060;-72
2021/08/09 10:32:44;;;;;;;4.97;2.13;;;24.10;77.30;;;;;;5015966;28;20093;-72
2021/08/09 10:35:35;;;;;;;4.93;2.17;;;24.10;76.90;;;;;;5015596;28;20029;-72
2021/08/09 10:38:15;;;;;;;5.38;1.90;;;24.00;75.90;;;;;;5010249;28;20109;-71
2021/08/09 10:40:42;;;;;;;3.95;2.22;;;24.00;76.00;;;;;;5015033;28;20037;-71
2021/08/09 10:43:08;;;;;;;4.20;2.08;;;24.00;75.90;;;;;;5009671;28;20030;-71
2021/08/09 10:45:41;;;;;;;6.75;2.00;;;24.00;75.70;;;;;;5013590;28;20022;-71
2021/08/09 10:48:09;;;;;;;5.57;1.80;;;24.00;75.80;;;;;;5010255;28;20053;-72
2021/08/09 10:50:39;;;;;;;3.25;1.77;;;24.00;76.20;;;;;;5013145;28;20387;-71
2021/08/09 10:53:24;;;;;;;5.05;2.53;;;24.10;75.30;;;;;;5012029;28;20030;-72
2021/08/09 10:55:53;;;;;;;3.78;2.15;;;24.20;74.70;;;;;;5012295;28;20030;-71
2021/08/09 10:58:51;;;;;;;3.90;1.80;;;24.20;75.10;;;;;;5013582;28;20034;-71
2021/08/09 11:01:22;;;;;;;4.45;1.98;;;24.20;75.00;;;;;;5013591;28;20048;-71
2021/08/09 11:04:03;;;;;;;5.03;1.95;;;24.30;73.30;;;;;;5014614;28;20029;-72
2021/08/09 11:06:53;;;;;;;4.88;2.20;;;24.30;73.70;;;;;;5012992;28;20482;-71
2021/08/09 11:09:37;;;;;;;4.57;1.60;;;24.40;74.80;;;;;;5018258;28;20041;-72
2021/08/09 11:12:16;;;;;;;6.30;1.80;;;24.50;73.20;;;;;;5011125;28;20038;-71
2021/08/09 11:15:02;;;;;;;4.28;1.80;;;24.60;72.50;;;;;;5014120;28;20073;-72
2021/08/09 11:17:42;;;;;;;4.72;2.10;;;24.70;70.70;;;;;;5012475;28;20037;-71
2021/08/09 11:20:33;;;;;;;4.15;1.80;;;24.80;70.10;;;;;;5014580;28;20030;-72
2021/08/09 11:23:11;;;;;;;2.78;1.60;;;24.90;71.20;;;;;;5013548;28;20033;-72
2021/08/09 11:25:45;;;;;;;3.08;1.85;;;24.90;69.60;;;;;;5013574;28;20041;-71
2021/08/09 11:28:18;;;;;;;3.80;1.92;;;24.90;68.40;;;;;;5027981;28;20025;-71
2021/08/09 11:30:53;;;;;;;2.47;1.38;;;25.00;68.60;;;;;;5013202;28;20037;-71
2021/08/09 11:33:29;;;;;;;2.60;1.60;;;25.00;69.00;;;;;;5014093;28;20693;-71
2021/08/09 11:36:05;;;;;;;2.70;1.73;;;25.10;68.50;;;;;;5011613;28;20335;-72
2021/08/09 11:38:47;;;;;;;4.32;1.60;;;25.10;68.20;;;;;;5012944;28;20121;-72
2021/08/09 11:41:16;;;;;;;4.85;1.83;;;25.20;68.30;;;;;;5013193;28;20026;-72
2021/08/09 11:43:42;;;;;;;4.47;2.33;;;25.30;67.90;;;;;;5016261;28;20061;-72
2021/08/09 11:46:11;;;;;;;7.75;2.15;;;25.30;67.60;;;;;;5008246;28;20104;-72
2021/08/09 11:48:38;;;;;;;4.50;1.70;;;25.40;65.90;;;;;;5013284;28;20076;-72
2021/08/09 11:51:06;;;;;;;3.78;1.67;;;25.40;65.80;;;;;;5014156;28;20040;-75
2021/08/09 11:53:33;;;;;;;2.78;1.80;;;25.40;65.70;;;;;;5012149;28;20034;-73
2021/08/09 11:56:15;;;;;;;4.32;1.88;;;25.50;66.00;;;;;;5013864;28;20026;-73
2021/08/09 11:58:42;;;;;;;4.22;2.60;;;25.50;64.70;;;;;;5003832;28;20045;-72
2021/08/09 12:01:08;;;;;;;3.83;2.75;;;25.50;62.80;;;;;;5011953;28;21780;-72
2021/08/09 12:03:35;;;;;;;2.97;1.85;;;25.50;62.70;;;;;;5003255;28;20038;-72
2021/08/09 12:06:23;;;;;;;3.22;1.80;;;25.60;62.40;;;;;;5011947;28;20470;-72
2021/08/09 12:08:58;;;;;;;2.85;1.73;;;25.60;62.80;;;;;;5011614;28;20105;-73
2021/08/09 12:11:29;;;;;;;4.85;2.25;;;25.60;63.00;;;;;;5007052;28;20029;-77
2021/08/09 12:14:06;;;;;;;2.60;1.88;;;25.60;62.00;;;;;;5010760;28;20034;-69
2021/08/09 12:16:55;;;;;;;3.42;2.15;;;25.70;62.10;;;;;;4997653;28;20026;-71
2021/08/09 12:20:03;;;;;;;4.40;2.13;;;25.70;61.50;;;;;;5007206;28;20048;-71
2021/08/09 12:22:29;;;;;;;5.35;2.00;;;25.70;61.10;;;;;;5005916;28;20482;-71
2021/08/09 12:25:15;;;;;;;5.10;1.70;;;25.70;61.00;;;;;;5007931;28;20066;-71
2021/08/09 12:27:41;;;;;;;4.05;2.00;;;25.80;61.60;;;;;;5005789;28;20036;-70
2021/08/09 12:30:11;;;;;;;2.83;2.28;;;25.80;62.00;;;;;;5007901;28;20025;-71
2021/08/09 12:32:39;;;;;;;4.35;2.13;;;25.80;61.20;;;;;;5008725;28;20034;-71
2021/08/09 12:35:07;;;;;;;6.47;1.80;;;25.90;61.30;;;;;;5006840;28;20072;-70
2021/08/09 12:37:36;;;;;;;3.25;1.88;;;25.90;60.50;;;;;;5010840;28;20068;-69
2021/08/09 12:40:13;;;;;;;3.15;2.05;;;25.90;60.40;;;;;;5004776;28;20857;-70
2021/08/09 12:42:40;;;;;;;2.33;1.60;;;26.00;60.60;;;;;;4993603;28;20525;-70
2021/08/09 12:45:06;;;;;;;4.30;1.90;;;26.00;59.60;;;;;;5008960;28;20124;-70
2021/08/09 12:47:32;;;;;;;3.55;1.60;;;26.10;58.70;;;;;;5011707;28;20034;-71
2021/08/09 12:49:57;;;;;;;3.03;1.73;;;26.10;60.30;;;;;;5007468;28;20125;-71
2021/08/09 12:52:23;;;;;;;3.50;1.98;;;26.10;60.60;;;;;;5010281;28;20037;-70
2021/08/09 12:54:48;;;;;;;2.35;1.38;;;26.20;61.10;;;;;;5009281;28;20014;-72
2021/08/09 12:57:15;;;;;;;4.53;1.90;;;26.20;59.60;;;;;;5010077;28;20065;-75
2021/08/09 12:59:41;;;;;;;2.60;1.55;;;26.30;59.00;;;;;;5007572;28;20029;-74
2021/08/09 13:02:06;;;;;;;3.40;1.65;;;26.40;57.70;;;;;;5009243;28;20029;-75
2021/08/09 13:04:32;;;;;;;3.17;1.90;;;26.40;58.00;;;;;;5006743;28;20470;-76
2021/08/09 13:06:57;;;;;;;5.80;2.90;;;26.50;57.80;;;;;;5010800;28;20544;-74
2021/08/09 13:09:24;;;;;;;5.18;3.10;;;26.60;57.60;;;;;;5012100;28;20092;-76
2021/08/09 13:11:50;;;;;;;4.40;2.13;;;26.60;57.60;;;;;;4997196;28;20057;-76
2021/08/09 13:14:34;;;;;;;5.60;1.90;;;26.70;56.90;;;;;;4996061;28;20125;-76
2021/08/09 13:17:18;;;;;;;4.28;1.92;;;26.60;56.20;;;;;;4999534;28;20041;-76
2021/08/09 13:20:03;;;;;;;3.75;1.85;;;26.60;55.30;;;;;;5011097;28;20051;-76
2021/08/09 13:22:48;;;;;;;3.95;1.92;;;26.60;55.60;;;;;;5011821;28;20070;-74
2021/08/09 13:25:34;;;;;;;10.55;1.95;;;26.70;55.20;;;;;;5010970;28;20088;-75
2021/08/09 13:28:18;;;;;;;6.25;1.75;;;26.80;55.00;;;;;;5008336;28;20143;-71
2021/08/09 13:31:02;;;;;;;4.17;1.70;;;26.90;54.90;;;;;;5011346;28;20026;-76
2021/08/09 13:33:27;;;;;;;4.43;2.08;;;27.10;54.80;;;;;;5010360;28;20048;-73
2021/08/09 13:35:53;;;;;;;3.53;1.88;;;27.10;54.60;;;;;;5010866;28;20382;-73
2021/08/09 13:38:18;;;;;;;2.70;1.85;;;27.10;54.30;;;;;;5010228;28;20038;-73
2021/08/09 13:40:44;;;;;;;5.03;2.05;;;27.10;54.40;;;;;;5009754;28;20030;-73
2021/08/09 13:43:10;;;;;;;2.63;1.52;;;27.20;54.30;;;;;;5008944;28;20029;-73
2021/08/09 13:45:37;;;;;;;2.72;1.45;;;27.20;53.60;;;;;;5002649;28;20026;-73
2021/08/09 13:48:03;;;;;;;3.88;1.80;;;27.20;53.80;;;;;;4994673;28;20033;-73
2021/08/09 13:50:30;;;;;;;4.63;2.08;;;27.20;53.80;;;;;;5008836;28;20072;-73
2021/08/09 13:52:55;;;;;;;4.32;1.92;;;27.20;53.30;;;;;;5006721;28;20104;-73